createdAt,value
2023-02-09T00:01:18.242Z,17.07
2023-02-09T00:06:15.404Z,19.43
2023-02-09T00:11:10.688Z,21.43
2023-02-09T00:16:05.740Z,20.57
2023-02-09T00:21:03.520Z,18.53
2023-02-09T00:25:59.576Z,16.87
2023-02-09T00:30:53.043Z,17.20
2023-02-09T00:35:46.757Z,16.90
2023-02-09T00:40:42.863Z,17.07
2023-02-09T00:45:37.202Z,16.87
2023-02-09T00:50:33.666Z,16.90
2023-02-09T00:55:29.069Z,17.40
2023-02-09T01:00:24.065Z,17.60
2023-02-09T01:05:17.930Z,17.07
2023-02-09T01:10:14.727Z,17.73
2023-02-09T01:15:11.451Z,17.47
2023-02-09T01:20:09.726Z,16.53
2023-02-09T01:25:03.434Z,17.80
2023-02-09T01:29:56.840Z,18.00
2023-02-09T01:34:52.725Z,17.40
2023-02-09T01:39:47.670Z,17.37
2023-02-09T01:45:16.077Z,17.43
2023-02-09T01:50:10.321Z,18.47
2023-02-09T01:55:11.679Z,18.73
2023-02-09T02:00:10.304Z,18.23
2023-02-09T02:05:05.894Z,17.97
2023-02-09T02:09:59.768Z,17.67
2023-02-09T02:14:54.493Z,18.33
2023-02-09T02:20:53.664Z,17.83
2023-02-09T02:26:49.661Z,18.30
2023-02-09T02:32:23.104Z,17.27
2023-02-09T02:37:43.414Z,18.97
2023-02-09T02:42:53.465Z,18.43
2023-02-09T02:47:59.430Z,18.63
2023-02-09T02:52:58.729Z,19.53
2023-02-09T02:57:57.695Z,18.20
2023-02-09T03:03:01.166Z,19.60
2023-02-09T03:07:57.056Z,18.90
2023-02-09T03:13:21.757Z,18.73
2023-02-09T03:23:58.195Z,18.97
2023-02-09T03:28:57.872Z,20.37
2023-02-09T03:33:53.088Z,19.67
2023-02-09T03:38:46.779Z,20.00
2023-02-09T03:43:57.635Z,19.53
2023-02-09T03:48:52.387Z,21.03
2023-02-09T03:53:47.230Z,20.10
2023-02-09T03:58:45.712Z,19.63
2023-02-09T04:03:40.898Z,20.33
2023-02-09T04:08:37.737Z,21.50
2023-02-09T04:13:42.236Z,19.50
2023-02-09T04:18:38.491Z,20.03
2023-02-09T04:23:32.060Z,19.77
2023-02-09T04:28:27.006Z,20.27
2023-02-09T04:33:20.505Z,18.87
2023-02-09T04:38:29.097Z,19.83
2023-02-09T04:43:38.581Z,19.43
2023-02-09T04:48:46.771Z,19.13
2023-02-09T04:53:48.824Z,19.97
2023-02-09T04:59:10.385Z,20.17
2023-02-09T05:04:04.033Z,19.63
2023-02-09T05:09:08.519Z,20.07
2023-02-09T05:14:03.295Z,19.80
2023-02-09T05:18:56.620Z,19.83
2023-02-09T05:23:49.994Z,19.70
2023-02-09T05:28:43.308Z,19.33
2023-02-09T05:33:38.080Z,20.90
2023-02-09T05:38:31.429Z,19.80
2023-02-09T05:43:24.709Z,20.20
2023-02-09T05:48:18.719Z,20.23
2023-02-09T05:53:15.206Z,26.30
2023-02-09T05:58:08.701Z,30.90
2023-02-09T06:03:26.538Z,21.97
2023-02-09T06:08:29.832Z,21.60
2023-02-09T06:13:23.237Z,20.73
2023-02-09T06:18:16.821Z,21.07
2023-02-09T06:23:10.196Z,21.67
2023-02-09T06:28:09.892Z,19.80
2023-02-09T06:33:03.252Z,20.20
2023-02-09T06:37:59.016Z,21.37
2023-02-09T06:43:07.629Z,21.23
2023-02-09T06:48:02.605Z,22.43
2023-02-09T06:52:56.134Z,21.80
2023-02-09T06:57:49.593Z,22.57
2023-02-09T07:02:43.850Z,22.70
2023-02-09T07:07:39.322Z,21.90
2023-02-09T07:12:32.769Z,22.17
2023-02-09T07:17:26.242Z,22.60
2023-02-09T07:22:20.786Z,21.97
2023-02-09T07:27:15.939Z,22.03
2023-02-09T07:32:09.797Z,23.30
2023-02-09T07:37:04.622Z,24.23
2023-02-09T07:41:58.138Z,26.23
2023-02-09T07:47:14.714Z,24.17
2023-02-09T07:52:38.700Z,22.50
2023-02-09T07:57:47.288Z,22.93
2023-02-09T08:03:11.701Z,22.90
2023-02-09T08:14:53.615Z,23.37
2023-02-09T08:20:34.632Z,23.63
2023-02-09T08:26:32.596Z,24.27
2023-02-09T08:31:53.775Z,23.67
2023-02-09T08:37:04.345Z,25.23
2023-02-09T08:42:23.626Z,24.83
2023-02-09T08:47:33.481Z,26.20
2023-02-09T08:52:54.402Z,25.50
2023-02-09T08:58:10.013Z,25.83
2023-02-09T09:03:32.481Z,26.90
2023-02-09T09:08:56.573Z,25.77
2023-02-09T09:14:16.175Z,28.43
2023-02-09T10:48:58.866Z,27.37
2023-02-09T11:00:49.188Z,26.10
2023-02-09T11:06:35.995Z,27.60
2023-02-09T11:17:49.458Z,26.83
2023-02-09T11:24:01.916Z,28.27
2023-02-09T11:35:29.553Z,28.90
2023-02-09T11:46:27.549Z,28.10
2023-02-09T11:51:23.794Z,26.40
2023-02-09T11:56:23.556Z,27.90
2023-02-09T12:01:36.056Z,26.97
2023-02-09T12:06:42.095Z,25.43
2023-02-09T12:11:50.813Z,26.73
2023-02-09T12:16:55.214Z,26.67
2023-02-09T12:21:50.667Z,28.43
2023-02-09T12:26:46.920Z,28.23
2023-02-09T12:32:26.449Z,28.17
2023-02-09T12:37:29.279Z,28.20
2023-02-09T12:42:31.057Z,26.47
2023-02-09T12:47:58.722Z,27.97
2023-02-09T12:53:45.364Z,27.57
2023-02-09T12:58:54.359Z,28.50
2023-02-09T13:03:59.998Z,29.13
2023-02-09T13:08:58.325Z,28.13
2023-02-09T13:13:57.392Z,28.23
2023-02-09T13:19:07.758Z,30.40
2023-02-09T13:24:11.616Z,28.73
2023-02-09T13:29:19.761Z,28.97
2023-02-09T13:34:35.325Z,30.37
2023-02-09T13:39:39.825Z,29.90
2023-02-09T13:49:41.333Z,30.50
2023-02-09T13:54:34.757Z,32.27
2023-02-09T13:59:28.479Z,34.73
2023-02-09T14:04:26.573Z,32.10
2023-02-09T14:09:27.797Z,29.63
2023-02-09T14:14:50.825Z,28.10
2023-02-09T14:19:57.736Z,27.87
2023-02-09T14:24:55.071Z,28.40
2023-02-09T14:29:51.004Z,29.97
2023-02-09T14:34:44.566Z,28.30
2023-02-09T14:39:56.637Z,31.13
2023-02-09T14:44:55.984Z,29.43
2023-02-09T14:49:49.398Z,29.07
2023-02-09T14:54:51.460Z,28.53
2023-02-09T14:59:48.739Z,28.50
2023-02-09T15:04:42.347Z,28.97
2023-02-09T15:09:41.283Z,27.93
2023-02-09T15:14:46.849Z,28.10
2023-02-09T15:19:41.828Z,28.30
2023-02-09T15:24:35.661Z,27.03
2023-02-09T15:29:29.437Z,26.33
2023-02-09T15:34:23.580Z,25.60
2023-02-09T15:39:23.215Z,26.77
2023-02-09T15:44:37.564Z,28.30
2023-02-09T15:49:31.453Z,33.57
2023-02-09T15:54:33.922Z,26.43
2023-02-09T15:59:27.513Z,32.90
2023-02-09T16:04:21.311Z,27.53
2023-02-09T16:09:22.356Z,28.30
2023-02-09T16:14:21.185Z,28.40
2023-02-09T16:19:14.811Z,32.47
2023-02-09T16:24:22.207Z,31.67
2023-02-09T16:29:17.412Z,30.50
2023-02-09T16:34:15.467Z,28.80
2023-02-09T16:39:18.635Z,27.00
2023-02-09T16:44:21.386Z,23.87
2023-02-09T16:49:32.960Z,24.20
2023-02-09T16:54:26.343Z,26.30
2023-02-09T16:59:22.381Z,25.57
2023-02-09T17:04:15.865Z,24.37
2023-02-09T17:09:16.341Z,25.93
2023-02-09T17:14:10.311Z,24.10
2023-02-09T17:19:13.957Z,25.40
2023-02-09T17:24:14.036Z,26.77
2023-02-09T17:29:07.590Z,26.10
2023-02-09T17:34:08.012Z,24.40
2023-02-09T17:39:05.551Z,25.97
2023-02-09T17:44:22.386Z,26.87
2023-02-09T17:49:23.872Z,27.50
2023-02-09T17:54:19.938Z,28.20
2023-02-09T17:59:14.290Z,29.07
2023-02-09T18:04:17.463Z,28.73
2023-02-09T18:09:21.007Z,26.70
2023-02-09T18:14:19.305Z,28.23
2023-02-09T18:19:13.623Z,28.60
2023-02-09T18:24:08.071Z,28.67
2023-02-09T18:29:02.984Z,28.17
2023-02-09T18:33:58.159Z,27.97
2023-02-09T18:38:53.506Z,37.37
2023-02-09T18:43:47.013Z,49.03
2023-02-09T18:48:41.901Z,30.97
2023-02-09T18:53:35.400Z,31.10
2023-02-09T18:58:28.900Z,31.53
2023-02-09T19:03:31.736Z,31.10
2023-02-09T19:08:26.568Z,37.17
2023-02-09T19:13:52.111Z,35.70
2023-02-09T19:19:11.994Z,34.13
2023-02-09T19:24:07.461Z,30.00
2023-02-09T19:34:29.060Z,25.13
2023-02-09T19:39:23.852Z,24.53
2023-02-09T19:44:17.569Z,23.47
2023-02-09T19:49:19.204Z,21.90
2023-02-09T19:54:15.790Z,22.27
2023-02-09T19:59:16.519Z,22.57
2023-02-09T20:04:14.571Z,21.87
2023-02-09T20:09:12.478Z,23.13
2023-02-09T20:14:07.237Z,20.50
2023-02-09T20:19:02.517Z,19.97
2023-02-09T20:23:58.278Z,19.73
2023-02-09T20:28:52.235Z,19.23
2023-02-09T20:33:45.938Z,19.90
2023-02-09T20:38:51.707Z,20.13
2023-02-09T20:44:13.241Z,20.07
2023-02-09T20:49:09.328Z,19.57
2023-02-09T20:54:04.810Z,20.37
2023-02-09T20:59:02.362Z,21.77
2023-02-09T21:03:58.881Z,20.60
2023-02-09T21:08:53.282Z,23.63
2023-02-09T21:13:49.684Z,21.73
2023-02-09T21:18:44.433Z,22.07
2023-02-09T21:23:38.054Z,22.40
2023-02-09T21:28:31.937Z,21.33
2023-02-09T21:33:27.217Z,20.70
2023-02-09T21:38:20.577Z,21.97
2023-02-09T21:43:13.921Z,22.77
2023-02-09T21:48:07.463Z,22.13
2023-02-09T21:53:03.075Z,22.93
2023-02-09T21:57:56.385Z,19.20
2023-02-09T22:02:54.401Z,19.27
2023-02-09T22:07:48.377Z,32.67
2023-02-09T22:12:43.131Z,27.37
2023-02-09T22:17:38.541Z,26.83
2023-02-09T22:22:32.214Z,25.20
2023-02-09T22:27:25.661Z,24.13
2023-02-09T22:32:21.266Z,25.17
2023-02-09T22:37:14.596Z,23.70
2023-02-09T22:42:08.253Z,20.63
2023-02-09T22:47:01.925Z,18.70
2023-02-09T22:51:56.653Z,18.20
2023-02-09T22:56:50.099Z,17.80
2023-02-09T23:01:44.453Z,18.50
2023-02-09T23:06:38.198Z,17.30
2023-02-09T23:11:33.577Z,17.60
2023-02-09T23:16:30.035Z,18.73
2023-02-09T23:21:27.563Z,17.50
2023-02-09T23:26:22.272Z,17.07
2023-02-09T23:31:20.858Z,17.40
2023-02-09T23:36:18.286Z,17.77
2023-02-09T23:41:15.145Z,18.50
2023-02-09T23:46:13.276Z,17.77
2023-02-09T23:51:12.345Z,18.53
2023-02-09T23:56:06.594Z,17.20
